Terminal Aerodrome Forecast
Issued by NWS Bismarck, ND

Home | Current Version | Previous Version | Graphics & Text | Print | Product List | Glossary On
Versions: 1 2 3 4 5 6 7 8 9 10 11 12 13 14 15 16
806
FTUS43 KBIS 220533
TAFISN
TAF
KISN 220533Z 2206/2306 13012KT P6SM BKN050
     FM221800 16014G23KT P6SM BKN130
     FM222200 17009KT P6SM SCT130
     FM230100 17005KT P6SM SCT200=

USA.gov is the U.S. government's official web portal to all federal, state and local government web resources and services.